»·PEaware :: N47NC KRNO-KSAC

N47NC :: KRNO-KSAC

FLIGHT INFORMATION

Flight Status: Arrived
Operator: Privately registered:
United States
More flights under this callsign
Pilot: Maurice C. (12314)
Aircraft: Unknown
(KODI)
More flights by this aircraft type
Origin: KRNO Reno/Tahoe Intl
United States
Destination: KSAC Sacramento Executive
United States
More flights between these airports :: More routes between these airports
Route: +
File this flight plan on PilotEdge
Remarks: FF
Altitude:
(Current/Filed)
0ft
Speed:
(Current/Filed)
0kts
Departed: 22-Aug-18 08:16 AM
Arrived: 22-Aug-18 09:01 AM
Distance/Time
Traveled:
100nm/0:45
Distance/Time
To Go:
Arrived

Flight Plot

Page will automatically refresh every two minutes.

Flight plan parsing failed; only flown route is shown


Map Options




Map Legend


Flown Route
Filed Route
Departure Airport
Arrival Airport
Navaid (VOR, NDB)
Fix

Horizontal Profiles

Position Reports

Time Latitude Longitude Heading Altitude Ground
Speed
22-Aug-18 08:03 39.502980 -119.773613 359 4413ft 0kts
22-Aug-18 08:04 39.502980 -119.773613 359 4413ft 0kts
22-Aug-18 08:05 39.502980 -119.773613 359 4413ft 0kts
22-Aug-18 08:06 39.502980 -119.773613 359 4413ft 0kts
22-Aug-18 08:07 39.502980 -119.773613 359 4413ft 0kts
22-Aug-18 08:08 39.502980 -119.773613 359 4413ft 0kts
22-Aug-18 08:09 39.503512 -119.773335 51 4413ft 8kts
22-Aug-18 08:10 39.507167 -119.771479 0 4413ft 24kts
22-Aug-18 08:11 39.513397 -119.771478 5 4413ft 2kts
22-Aug-18 08:12 39.513739 -119.770406 93 4413ft 0kts
22-Aug-18 08:13 39.513739 -119.770406 93 4413ft 0kts
22-Aug-18 08:14 39.513739 -119.770406 93 4413ft 0kts
22-Aug-18 08:15 39.513739 -119.770406 93 4413ft 0kts
22-Aug-18 08:16 39.513667 -119.769496 115 4413ft 11kts
22-Aug-18 08:17 39.498164 -119.769624 180 4701ft 107kts
22-Aug-18 08:18 39.464026 -119.770166 183 6107ft 131kts
22-Aug-18 08:19 39.426491 -119.770991 181 7590ft 142kts
22-Aug-18 08:20 39.388469 -119.761056 158 8782ft 158kts
22-Aug-18 08:21 39.347096 -119.780911 205 9392ft 165kts
22-Aug-18 08:22 39.305740 -119.807105 205 9993ft 165kts
22-Aug-18 08:23 39.264114 -119.831254 211 10505ft 168kts
22-Aug-18 08:24 39.230023 -119.875622 226 10499ft 176kts
22-Aug-18 08:25 39.197789 -119.921954 226 10499ft 172kts
22-Aug-18 08:26 39.169235 -119.971181 240 10486ft 171kts
22-Aug-18 08:27 39.147319 -120.025997 240 10499ft 172kts
22-Aug-18 08:28 39.125324 -120.081005 240 10499ft 173kts
22-Aug-18 08:29 39.103297 -120.136093 240 10499ft 173kts
22-Aug-18 08:30 39.081359 -120.190956 240 10499ft 173kts
22-Aug-18 08:31 39.059356 -120.245979 240 10499ft 173kts
22-Aug-18 08:32 39.037533 -120.301450 240 10499ft 175kts
22-Aug-18 08:33 39.015498 -120.357643 240 10498ft 176kts
22-Aug-18 08:34 38.993430 -120.413914 241 10498ft 176kts
22-Aug-18 08:35 38.971321 -120.470276 240 10464ft 177kts
22-Aug-18 08:36 38.949177 -120.526765 241 10461ft 176kts
22-Aug-18 08:37 38.926456 -120.584635 241 10061ft 188kts
22-Aug-18 08:38 38.902545 -120.645485 241 9455ft 192kts
22-Aug-18 08:39 38.881818 -120.697894 240 8958ft 192kts
22-Aug-18 08:40 38.865039 -120.739908 240 8613ft 190kts
22-Aug-18 08:41 38.841969 -120.795706 240 8187ft 191kts
22-Aug-18 08:42 38.817323 -120.853881 240 7824ft 190kts
22-Aug-18 08:43 38.792602 -120.911604 240 7518ft 189kts
22-Aug-18 08:44 38.767849 -120.968659 240 7239ft 188kts
22-Aug-18 08:45 38.743194 -121.023912 238 6541ft 176kts
22-Aug-18 08:46 38.720139 -121.071726 239 6496ft 168kts
22-Aug-18 08:47 38.697841 -121.117415 237 6152ft 174kts
22-Aug-18 08:48 38.675429 -121.163117 237 5429ft 171kts
22-Aug-18 08:49 38.653082 -121.208668 236 4538ft 169kts
22-Aug-18 08:50 38.630450 -121.254750 236 3625ft 165kts
22-Aug-18 08:51 38.609069 -121.298205 236 2724ft 157kts
22-Aug-18 08:52 38.588766 -121.339396 236 1845ft 155kts
22-Aug-18 08:53 38.570619 -121.376163 235 1111ft 135kts
22-Aug-18 08:54 38.556012 -121.405754 235 1041ft 112kts
22-Aug-18 08:55 38.542390 -121.433193 237 990ft 102kts
22-Aug-18 08:56 38.528028 -121.453183 231 1110ft 87kts
22-Aug-18 08:57 38.510108 -121.467722 206 1393ft 87kts
22-Aug-18 08:58 38.490527 -121.480554 211 1148ft 81kts
22-Aug-18 08:59 38.477475 -121.500806 283 943ft 74kts
22-Aug-18 09:00 38.491536 -121.512016 30 497ft 82kts
22-Aug-18 09:01 38.506249 -121.499930 32 57ft 73kts
22-Aug-18 09:02 38.511355 -121.497076 271 24ft 20kts

Navigation Log

Ident Type
Flight plan parsing failed, navigation log unavailable